createdAt,value
2018-12-16T00:03:09.005Z,21.30
2018-12-16T00:13:13.767Z,21.30
2018-12-16T00:23:18.631Z,21.20
2018-12-16T00:33:23.180Z,21.30
2018-12-16T00:43:27.861Z,21.30
2018-12-16T00:53:32.586Z,21.30
2018-12-16T01:03:37.447Z,21.40
2018-12-16T01:13:42.244Z,21.40
2018-12-16T01:23:47.482Z,21.50
2018-12-16T01:33:52.301Z,21.50
2018-12-16T01:43:56.930Z,21.60
2018-12-16T01:54:01.539Z,21.50
2018-12-16T02:04:06.177Z,21.50
2018-12-16T02:14:10.811Z,21.50
2018-12-16T02:24:16.098Z,21.50
2018-12-16T02:34:20.861Z,21.40
2018-12-16T02:44:25.516Z,21.40
2018-12-16T02:54:30.128Z,21.40
2018-12-16T03:04:34.736Z,21.40
2018-12-16T03:14:39.488Z,21.40
2018-12-16T03:24:44.136Z,21.40
2018-12-16T03:34:48.843Z,21.40
2018-12-16T03:44:53.530Z,21.40
2018-12-16T03:54:58.294Z,21.50
2018-12-16T04:05:03.114Z,21.50
2018-12-16T04:15:08.051Z,21.50
2018-12-16T04:25:12.812Z,21.50
2018-12-16T04:35:17.539Z,21.50
2018-12-16T04:45:23.078Z,21.40
2018-12-16T04:55:27.830Z,21.30
2018-12-16T05:05:32.647Z,21.20
2018-12-16T05:15:37.358Z,21.30
2018-12-16T05:25:42.003Z,21.30
2018-12-16T05:35:46.687Z,21.30
2018-12-16T05:45:51.303Z,21.30
2018-12-16T05:55:55.917Z,21.30
2018-12-16T06:06:00.597Z,21.30
2018-12-16T06:16:05.222Z,21.40
2018-12-16T06:26:10.027Z,21.30
2018-12-16T06:36:14.670Z,21.30
2018-12-16T06:46:19.204Z,21.30
2018-12-16T06:56:23.936Z,21.40
2018-12-16T07:06:28.561Z,21.40
2018-12-16T07:16:33.115Z,21.40
2018-12-16T07:26:38.001Z,21.40
2018-12-16T07:36:42.611Z,21.40
2018-12-16T07:46:47.298Z,21.40
2018-12-16T07:56:52.121Z,21.40
2018-12-16T08:06:56.971Z,21.50
2018-12-16T08:17:01.557Z,21.50
2018-12-16T08:27:06.314Z,21.50
2018-12-16T08:37:10.927Z,21.50
2018-12-16T08:47:15.821Z,21.50
2018-12-16T08:57:20.693Z,21.50
2018-12-16T09:07:26.572Z,21.50
2018-12-16T09:17:31.366Z,21.20
2018-12-16T09:27:36.132Z,19.90
2018-12-16T09:37:40.744Z,18.50
2018-12-16T09:47:45.829Z,19.00
2018-12-16T09:57:50.485Z,19.00
2018-12-16T10:07:55.974Z,19.60
2018-12-16T10:18:01.308Z,19.90
2018-12-16T10:28:06.114Z,20.00
2018-12-16T10:38:10.691Z,20.20
2018-12-16T10:48:15.284Z,20.30
2018-12-16T10:58:19.926Z,20.40
2018-12-16T11:08:24.995Z,20.60
2018-12-16T11:18:29.707Z,20.70
2018-12-16T11:28:36.108Z,20.70
2018-12-16T11:38:40.918Z,20.80
2018-12-16T11:48:45.587Z,20.90
2018-12-16T11:58:52.215Z,20.90
2018-12-16T12:08:58.268Z,21.00
2018-12-16T12:19:04.654Z,21.00
2018-12-16T12:29:09.730Z,21.10
2018-12-16T12:39:17.237Z,21.10
2018-12-16T12:49:22.870Z,21.20
2018-12-16T12:59:28.500Z,21.30
2018-12-16T13:09:34.002Z,21.30
2018-12-16T13:19:41.205Z,21.50
2018-12-16T13:29:46.581Z,21.60
2018-12-16T13:39:55.118Z,21.60
2018-12-16T13:50:00.885Z,21.60
2018-12-16T14:00:07.138Z,21.70
2018-12-16T14:10:12.124Z,21.70
2018-12-16T14:20:16.799Z,21.80
2018-12-16T14:30:21.552Z,21.80
2018-12-16T14:40:26.702Z,21.80
2018-12-16T14:50:32.213Z,21.90
2018-12-16T15:00:36.773Z,21.60
2018-12-16T15:10:41.513Z,21.80
2018-12-16T15:20:46.920Z,21.90
2018-12-16T15:30:51.642Z,21.90
2018-12-16T15:40:57.041Z,21.90
2018-12-16T15:51:01.845Z,21.80
2018-12-16T16:01:06.457Z,21.80
2018-12-16T16:11:11.162Z,21.80
2018-12-16T16:21:15.813Z,21.70
2018-12-16T16:31:20.407Z,21.70
2018-12-16T16:41:25.479Z,21.70
2018-12-16T16:51:30.362Z,21.70
2018-12-16T17:01:35.672Z,21.70
2018-12-16T17:11:40.918Z,21.60
2018-12-16T17:21:47.095Z,21.70
2018-12-16T17:31:52.443Z,21.80
2018-12-16T17:41:58.111Z,21.90
2018-12-16T17:52:04.478Z,21.90
2018-12-16T18:02:09.399Z,21.90
2018-12-16T18:12:14.643Z,22.20
2018-12-16T18:22:20.023Z,22.30
